sensor_id;sensor_type;location;lat;lon;timestamp;pressure;altitude;pressure_sealevel;temperature;humidity
67840;BME280;54636;51.684;5.142;2024-01-07T00:00:12;101785.31;;;1.37;100.00
67840;BME280;54636;51.684;5.142;2024-01-07T00:02:38;101792.19;;;1.34;100.00
67840;BME280;54636;51.684;5.142;2024-01-07T00:05:04;101780.41;;;1.28;100.00
67840;BME280;54636;51.684;5.142;2024-01-07T00:07:29;101782.28;;;1.31;100.00
67840;BME280;54636;51.684;5.142;2024-01-07T00:09:55;101795.66;;;1.31;100.00
67840;BME280;54636;51.684;5.142;2024-01-07T00:12:20;101786.16;;;1.26;100.00
67840;BME280;54636;51.684;5.142;2024-01-07T00:14:45;101804.50;;;1.28;100.00
67840;BME280;54636;51.684;5.142;2024-01-07T00:17:11;101783.97;;;1.11;100.00
67840;BME280;54636;51.684;5.142;2024-01-07T00:19:36;101781.25;;;1.14;100.00
67840;BME280;54636;51.684;5.142;2024-01-07T00:22:03;101812.53;;;1.28;100.00
67840;BME280;54636;51.684;5.142;2024-01-07T00:24:29;101808.72;;;1.25;100.00
67840;BME280;54636;51.684;5.142;2024-01-07T00:26:55;101787.03;;;1.09;100.00
67840;BME280;54636;51.684;5.142;2024-01-07T00:29:20;101806.06;;;1.22;100.00
67840;BME280;54636;51.684;5.142;2024-01-07T00:31:46;101797.34;;;1.11;100.00
67840;BME280;54636;51.684;5.142;2024-01-07T00:34:11;101820.94;;;1.26;100.00
67840;BME280;54636;51.684;5.142;2024-01-07T00:36:37;101805.00;;;1.09;100.00
67840;BME280;54636;51.684;5.142;2024-01-07T00:39:02;101821.31;;;1.28;100.00
67840;BME280;54636;51.684;5.142;2024-01-07T00:41:28;101816.78;;;1.22;100.00
67840;BME280;54636;51.684;5.142;2024-01-07T00:43:55;101812.22;;;1.15;100.00
67840;BME280;54636;51.684;5.142;2024-01-07T00:46:20;101821.72;;;1.27;100.00
67840;BME280;54636;51.684;5.142;2024-01-07T00:48:46;101828.22;;;1.26;100.00
67840;BME280;54636;51.684;5.142;2024-01-07T00:51:11;101820.22;;;1.22;100.00
67840;BME280;54636;51.684;5.142;2024-01-07T00:53:36;101824.03;;;1.21;100.00
67840;BME280;54636;51.684;5.142;2024-01-07T00:56:02;101834.34;;;1.26;100.00
67840;BME280;54636;51.684;5.142;2024-01-07T00:58:27;101834.31;;;1.30;100.00
67840;BME280;54636;51.684;5.142;2024-01-07T01:00:53;101811.50;;;1.04;100.00
67840;BME280;54636;51.684;5.142;2024-01-07T01:03:19;101847.34;;;1.21;100.00
67840;BME280;54636;51.684;5.142;2024-01-07T01:05:45;101842.41;;;1.19;100.00
67840;BME280;54636;51.684;5.142;2024-01-07T01:08:10;101846.66;;;1.10;100.00
67840;BME280;54636;51.684;5.142;2024-01-07T01:10:35;101841.66;;;1.15;100.00
67840;BME280;54636;51.684;5.142;2024-01-07T01:13:01;101843.56;;;1.15;100.00
67840;BME280;54636;51.684;5.142;2024-01-07T01:15:26;101826.06;;;0.96;100.00
67840;BME280;54636;51.684;5.142;2024-01-07T01:17:52;101844.72;;;1.14;100.00
67840;BME280;54636;51.684;5.142;2024-01-07T01:20:17;101849.31;;;1.10;100.00
67840;BME280;54636;51.684;5.142;2024-01-07T01:22:43;101849.69;;;1.15;100.00
67840;BME280;54636;51.684;5.142;2024-01-07T01:25:08;101837.50;;;1.04;100.00
67840;BME280;54636;51.684;5.142;2024-01-07T01:27:35;101831.41;;;0.99;100.00
67840;BME280;54636;51.684;5.142;2024-01-07T01:30:00;101863.06;;;1.12;100.00
67840;BME280;54636;51.684;5.142;2024-01-07T01:32:26;101863.84;;;1.09;100.00
67840;BME280;54636;51.684;5.142;2024-01-07T01:34:51;101850.50;;;1.02;100.00
67840;BME280;54636;51.684;5.142;2024-01-07T01:37:16;101834.13;;;0.89;100.00
67840;BME280;54636;51.684;5.142;2024-01-07T01:39:42;101869.97;;;1.06;100.00
67840;BME280;54636;51.684;5.142;2024-01-07T01:42:07;101845.97;;;0.84;100.00
67840;BME280;54636;51.684;5.142;2024-01-07T01:44:33;101873.81;;;1.01;100.00
67840;BME280;54636;51.684;5.142;2024-01-07T01:46:59;101874.97;;;1.00;100.00
67840;BME280;54636;51.684;5.142;2024-01-07T01:49:25;101876.47;;;1.05;100.00
67840;BME280;54636;51.684;5.142;2024-01-07T01:51:51;101881.84;;;1.01;100.00
67840;BME280;54636;51.684;5.142;2024-01-07T01:54:19;101863.56;;;0.85;100.00
67840;BME280;54636;51.684;5.142;2024-01-07T01:56:45;101886.81;;;0.99;100.00
67840;BME280;54636;51.684;5.142;2024-01-07T01:59:12;101879.56;;;0.99;100.00
67840;BME280;54636;51.684;5.142;2024-01-07T02:01:38;101893.31;;;1.02;100.00
67840;BME280;54636;51.684;5.142;2024-01-07T02:04:04;101887.59;;;0.96;100.00
67840;BME280;54636;51.684;5.142;2024-01-07T02:06:30;101892.91;;;1.03;100.00
67840;BME280;54636;51.684;5.142;2024-01-07T02:08:55;101875.38;;;0.91;100.00
67840;BME280;54636;51.684;5.142;2024-01-07T02:11:22;101895.59;;;1.03;100.00
67840;BME280;54636;51.684;5.142;2024-01-07T02:13:47;101889.09;;;1.01;100.00
67840;BME280;54636;51.684;5.142;2024-01-07T02:16:14;101891.38;;;1.02;100.00
67840;BME280;54636;51.684;5.142;2024-01-07T02:18:44;101883.41;;;0.91;100.00
67840;BME280;54636;51.684;5.142;2024-01-07T02:21:10;101885.66;;;1.00;100.00
67840;BME280;54636;51.684;5.142;2024-01-07T02:23:36;101886.44;;;0.97;100.00
67840;BME280;54636;51.684;5.142;2024-01-07T02:26:02;101905.13;;;1.08;100.00
67840;BME280;54636;51.684;5.142;2024-01-07T02:28:28;101891.03;;;0.96;100.00
67840;BME280;54636;51.684;5.142;2024-01-07T02:30:53;101908.19;;;1.06;100.00
67840;BME280;54636;51.684;5.142;2024-01-07T02:33:19;101864.34;;;0.75;100.00
67840;BME280;54636;51.684;5.142;2024-01-07T02:35:44;101904.78;;;1.02;100.00
67840;BME280;54636;51.684;5.142;2024-01-07T02:38:09;101906.31;;;0.99;100.00
67840;BME280;54636;51.684;5.142;2024-01-07T02:40:35;101884.56;;;0.87;100.00
67840;BME280;54636;51.684;5.142;2024-01-07T02:43:00;101907.06;;;0.96;100.00
67840;BME280;54636;51.684;5.142;2024-01-07T02:45:25;101902.13;;;0.91;100.00
67840;BME280;54636;51.684;5.142;2024-01-07T02:47:51;101915.09;;;1.00;100.00
67840;BME280;54636;51.684;5.142;2024-01-07T02:50:16;101918.16;;;0.98;100.00
67840;BME280;54636;51.684;5.142;2024-01-07T02:52:42;101907.84;;;0.97;100.00
67840;BME280;54636;51.684;5.142;2024-01-07T02:55:08;101913.94;;;1.01;100.00
67840;BME280;54636;51.684;5.142;2024-01-07T02:57:33;101915.47;;;0.98;100.00
67840;BME280;54636;51.684;5.142;2024-01-07T02:59:59;101904.03;;;0.91;100.00
67840;BME280;54636;51.684;5.142;2024-01-07T03:02:24;101899.84;;;0.90;100.00
67840;BME280;54636;51.684;5.142;2024-01-07T03:04:50;101942.22;;;1.02;100.00
67840;BME280;54636;51.684;5.142;2024-01-07T03:07:15;101934.22;;;0.98;100.00
67840;BME280;54636;51.684;5.142;2024-01-07T03:09:40;101934.59;;;1.01;100.00
67840;BME280;54636;51.684;5.142;2024-01-07T03:12:06;101934.97;;;0.99;100.00
67840;BME280;54636;51.684;5.142;2024-01-07T03:14:31;101934.59;;;0.93;100.00
67840;BME280;54636;51.684;5.142;2024-01-07T03:16:57;101929.25;;;0.90;100.00
67840;BME280;54636;51.684;5.142;2024-01-07T03:19:22;101918.59;;;0.79;100.00
67840;BME280;54636;51.684;5.142;2024-01-07T03:21:48;101946.44;;;0.92;100.00
67840;BME280;54636;51.684;5.142;2024-01-07T03:24:14;101950.66;;;0.93;100.00
67840;BME280;54636;51.684;5.142;2024-01-07T03:26:39;101950.66;;;0.97;100.00
67840;BME280;54636;51.684;5.142;2024-01-07T03:29:05;101916.31;;;0.71;100.00
67840;BME280;54636;51.684;5.142;2024-01-07T03:31:30;101936.91;;;0.81;100.00
67840;BME280;54636;51.684;5.142;2024-01-07T03:33:56;101937.28;;;0.86;100.00
67840;BME280;54636;51.684;5.142;2024-01-07T03:36:21;101955.22;;;0.96;100.00
67840;BME280;54636;51.684;5.142;2024-01-07T03:38:47;101945.69;;;0.88;100.00
67840;BME280;54636;51.684;5.142;2024-01-07T03:41:19;101955.63;;;0.91;100.00
67840;BME280;54636;51.684;5.142;2024-01-07T03:43:48;101941.13;;;0.78;100.00
67840;BME280;54636;51.684;5.142;2024-01-07T03:46:14;101960.97;;;0.88;100.00
67840;BME280;54636;51.684;5.142;2024-01-07T03:48:41;101965.19;;;0.85;100.00
67840;BME280;54636;51.684;5.142;2024-01-07T03:51:06;101955.63;;;0.81;100.00
67840;BME280;54636;51.684;5.142;2024-01-07T03:53:32;101964.41;;;0.88;100.00
67840;BME280;54636;51.684;5.142;2024-01-07T03:55:58;101954.50;;;0.75;100.00
67840;BME280;54636;51.684;5.142;2024-01-07T03:58:23;101969.00;;;0.88;100.00
67840;BME280;54636;51.684;5.142;2024-01-07T04:00:48;101969.75;;;0.92;100.00
67840;BME280;54636;51.684;5.142;2024-01-07T04:03:14;101973.56;;;0.94;100.00
67840;BME280;54636;51.684;5.142;2024-01-07T04:05:39;101974.72;;;0.90;100.00
67840;BME280;54636;51.684;5.142;2024-01-07T04:08:05;101965.19;;;0.82;100.00
67840;BME280;54636;51.684;5.142;2024-01-07T04:10:30;101964.41;;;0.85;100.00
67840;BME280;54636;51.684;5.142;2024-01-07T04:12:56;101964.78;;;0.90;100.00
67840;BME280;54636;51.684;5.142;2024-01-07T04:15:21;101962.13;;;0.80;100.00
67840;BME280;54636;51.684;5.142;2024-01-07T04:17:47;101977.78;;;0.92;100.00
67840;BME280;54636;51.684;5.142;2024-01-07T04:20:13;101972.81;;;0.83;100.00
67840;BME280;54636;51.684;5.142;2024-01-07T04:22:38;101995.34;;;0.96;100.00
67840;BME280;54636;51.684;5.142;2024-01-07T04:25:04;101985.44;;;0.90;100.00
67840;BME280;54636;51.684;5.142;2024-01-07T04:27:36;102003.00;;;0.94;100.00
67840;BME280;54636;51.684;5.142;2024-01-07T04:30:02;101969.78;;;0.71;100.00
67840;BME280;54636;51.684;5.142;2024-01-07T04:32:28;102003.38;;;0.93;100.00
67840;BME280;54636;51.684;5.142;2024-01-07T04:34:54;101998.81;;;0.90;100.00
67840;BME280;54636;51.684;5.142;2024-01-07T04:37:19;102019.81;;;0.98;100.00
67840;BME280;54636;51.684;5.142;2024-01-07T04:39:45;102013.31;;;0.99;100.00
67840;BME280;54636;51.684;5.142;2024-01-07T04:42:10;102005.69;;;0.94;100.00
67840;BME280;54636;51.684;5.142;2024-01-07T04:44:36;102017.13;;;1.02;100.00
67840;BME280;54636;51.684;5.142;2024-01-07T04:47:01;101996.13;;;0.86;100.00
67840;BME280;54636;51.684;5.142;2024-01-07T04:49:26;102006.84;;;0.86;100.00
67840;BME280;54636;51.684;5.142;2024-01-07T04:51:52;102029.38;;;1.03;100.00
67840;BME280;54636;51.684;5.142;2024-01-07T04:54:17;102012.19;;;0.86;100.00
67840;BME280;54636;51.684;5.142;2024-01-07T04:56:43;102039.31;;;0.88;100.00
67840;BME280;54636;51.684;5.142;2024-01-07T04:59:09;102038.16;;;0.96;100.00
67840;BME280;54636;51.684;5.142;2024-01-07T05:01:35;102037.41;;;0.92;100.00
67840;BME280;54636;51.684;5.142;2024-01-07T05:04:04;102045.03;;;0.94;100.00
67840;BME280;54636;51.684;5.142;2024-01-07T05:06:29;102049.25;;;0.98;100.00
67840;BME280;54636;51.684;5.142;2024-01-07T05:08:54;102046.19;;;0.93;100.00
67840;BME280;54636;51.684;5.142;2024-01-07T05:11:20;102037.41;;;0.89;100.00
67840;BME280;54636;51.684;5.142;2024-01-07T05:13:45;102044.28;;;0.93;100.00
67840;BME280;54636;51.684;5.142;2024-01-07T05:16:20;102052.69;;;0.95;100.00
67840;BME280;54636;51.684;5.142;2024-01-07T05:18:45;102046.19;;;0.89;100.00
67840;BME280;54636;51.684;5.142;2024-01-07T05:21:14;102031.66;;;0.80;100.00
67840;BME280;54636;51.684;5.142;2024-01-07T05:23:40;102058.41;;;0.94;100.00
67840;BME280;54636;51.684;5.142;2024-01-07T05:26:06;102053.44;;;0.96;100.00
67840;BME280;54636;51.684;5.142;2024-01-07T05:28:31;102058.03;;;0.92;100.00
67840;BME280;54636;51.684;5.142;2024-01-07T05:30:56;102063.00;;;0.93;100.00
67840;BME280;54636;51.684;5.142;2024-01-07T05:33:22;102064.91;;;0.89;100.00
67840;BME280;54636;51.684;5.142;2024-01-07T05:35:47;102066.06;;;0.92;100.00
67840;BME280;54636;51.684;5.142;2024-01-07T05:38:12;102064.91;;;0.89;100.00
67840;BME280;54636;51.684;5.142;2024-01-07T05:40:38;102070.66;;;0.91;100.00
67840;BME280;54636;51.684;5.142;2024-01-07T05:43:03;102081.34;;;0.95;100.00
67840;BME280;54636;51.684;5.142;2024-01-07T05:45:29;102088.22;;;0.96;100.00
67840;BME280;54636;51.684;5.142;2024-01-07T05:47:54;102082.50;;;0.90;100.00
67840;BME280;54636;51.684;5.142;2024-01-07T05:50:19;102085.94;;;0.87;100.00
67840;BME280;54636;51.684;5.142;2024-01-07T05:52:45;102099.69;;;0.93;100.00
67840;BME280;54636;51.684;5.142;2024-01-07T05:55:11;102098.94;;;0.92;100.00
67840;BME280;54636;51.684;5.142;2024-01-07T05:57:36;102086.31;;;0.79;100.00
67840;BME280;54636;51.684;5.142;2024-01-07T06:00:02;102082.88;;;0.78;100.00
67840;BME280;54636;51.684;5.142;2024-01-07T06:02:27;102111.16;;;0.83;100.00
67840;BME280;54636;51.684;5.142;2024-01-07T06:04:53;102077.53;;;0.60;100.00
67840;BME280;54636;51.684;5.142;2024-01-07T06:07:18;102096.22;;;0.68;100.00
67840;BME280;54636;51.684;5.142;2024-01-07T06:09:44;102119.16;;;0.76;100.00
67840;BME280;54636;51.684;5.142;2024-01-07T06:12:09;102108.06;;;0.70;100.00
67840;BME280;54636;51.684;5.142;2024-01-07T06:14:34;102059.16;;;0.30;100.00
67840;BME280;54636;51.684;5.142;2024-01-07T06:17:00;102118.78;;;0.77;100.00
67840;BME280;54636;51.684;5.142;2024-01-07T06:19:26;102091.63;;;0.50;100.00
67840;BME280;54636;51.684;5.142;2024-01-07T06:21:51;102122.59;;;0.76;100.00
67840;BME280;54636;51.684;5.142;2024-01-07T06:24:16;102113.41;;;0.66;100.00
67840;BME280;54636;51.684;5.142;2024-01-07T06:26:42;102137.88;;;0.76;100.00
67840;BME280;54636;51.684;5.142;2024-01-07T06:29:08;102132.53;;;0.72;100.00
67840;BME280;54636;51.684;5.142;2024-01-07T06:31:34;102146.66;;;0.76;100.00
67840;BME280;54636;51.684;5.142;2024-01-07T06:34:00;102148.56;;;0.69;100.00
67840;BME280;54636;51.684;5.142;2024-01-07T06:36:26;102135.94;;;0.69;100.00
67840;BME280;54636;51.684;5.142;2024-01-07T06:38:51;102119.13;;;0.47;100.00
67840;BME280;54636;51.684;5.142;2024-01-07T06:41:16;102152.75;;;0.70;100.00
67840;BME280;54636;51.684;5.142;2024-01-07T06:43:42;102136.72;;;0.55;100.00
67840;BME280;54636;51.684;5.142;2024-01-07T06:46:07;102153.53;;;0.63;100.00
67840;BME280;54636;51.684;5.142;2024-01-07T06:48:33;102173.03;;;0.63;100.00
67840;BME280;54636;51.684;5.142;2024-01-07T06:50:58;102176.47;;;0.64;100.00
67840;BME280;54636;51.684;5.142;2024-01-07T06:53:23;102180.28;;;0.63;100.00
67840;BME280;54636;51.684;5.142;2024-01-07T06:55:49;102179.13;;;0.64;100.00
67840;BME280;54636;51.684;5.142;2024-01-07T06:58:14;102184.47;;;0.60;100.00
67840;BME280;54636;51.684;5.142;2024-01-07T07:00:40;102181.03;;;0.60;100.00
67840;BME280;54636;51.684;5.142;2024-01-07T07:03:06;102173.78;;;0.60;100.00
67840;BME280;54636;51.684;5.142;2024-01-07T07:05:31;102168.78;;;0.48;100.00
67840;BME280;54636;51.684;5.142;2024-01-07T07:07:57;102190.19;;;0.66;100.00
67840;BME280;54636;51.684;5.142;2024-01-07T07:10:23;102203.97;;;0.64;100.00
67840;BME280;54636;51.684;5.142;2024-01-07T07:12:49;102180.25;;;0.52;100.00
67840;BME280;54636;51.684;5.142;2024-01-07T07:15:16;102194.03;;;0.69;100.00
67840;BME280;54636;51.684;5.142;2024-01-07T07:17:41;102202.03;;;0.69;100.00
67840;BME280;54636;51.684;5.142;2024-01-07T07:20:07;102213.88;;;0.68;100.00
67840;BME280;54636;51.684;5.142;2024-01-07T07:22:33;102200.13;;;0.55;100.00
67840;BME280;54636;51.684;5.142;2024-01-07T07:24:58;102215.81;;;0.71;100.00
67840;BME280;54636;51.684;5.142;2024-01-07T07:27:24;102227.25;;;0.68;100.00
67840;BME280;54636;51.684;5.142;2024-01-07T07:29:49;102213.84;;;0.53;100.00
67840;BME280;54636;51.684;5.142;2024-01-07T07:32:15;102218.81;;;0.51;100.00
67840;BME280;54636;51.684;5.142;2024-01-07T07:34:40;102223.81;;;0.56;100.00
67840;BME280;54636;51.684;5.142;2024-01-07T07:37:06;102242.91;;;0.62;100.00
67840;BME280;54636;51.684;5.142;2024-01-07T07:39:31;102224.19;;;0.55;100.00
67840;BME280;54636;51.684;5.142;2024-01-07T07:41:56;102236.03;;;0.57;100.00
67840;BME280;54636;51.684;5.142;2024-01-07T07:44:22;102258.94;;;0.58;100.00
67840;BME280;54636;51.684;5.142;2024-01-07T07:46:47;102252.06;;;0.54;100.00
67840;BME280;54636;51.684;5.142;2024-01-07T07:49:12;102257.06;;;0.62;100.00
67840;BME280;54636;51.684;5.142;2024-01-07T07:51:39;102265.06;;;0.62;100.00
67840;BME280;54636;51.684;5.142;2024-01-07T07:54:04;102268.13;;;0.61;100.00
67840;BME280;54636;51.684;5.142;2024-01-07T07:56:30;102265.03;;;0.55;100.00
67840;BME280;54636;51.684;5.142;2024-01-07T07:58:55;102239.81;;;0.49;100.00
67840;BME280;54636;51.684;5.142;2024-01-07T08:01:20;102267.34;;;0.60;100.00
67840;BME280;54636;51.684;5.142;2024-01-07T08:03:46;102276.13;;;0.57;100.00
67840;BME280;54636;51.684;5.142;2024-01-07T08:06:11;102263.88;;;0.53;100.00
67840;BME280;54636;51.684;5.142;2024-01-07T08:08:37;102278.03;;;0.57;100.00
67840;BME280;54636;51.684;5.142;2024-01-07T08:11:02;102263.47;;;0.44;100.00
67840;BME280;54636;51.684;5.142;2024-01-07T08:13:30;102279.19;;;0.59;100.00
67840;BME280;54636;51.684;5.142;2024-01-07T08:15:56;102282.28;;;0.65;100.00
67840;BME280;54636;51.684;5.142;2024-01-07T08:18:21;102296.41;;;0.69;100.00
67840;BME280;54636;51.684;5.142;2024-01-07T08:20:46;102306.34;;;0.69;100.00
67840;BME280;54636;51.684;5.142;2024-01-07T08:23:12;102286.06;;;0.57;100.00
67840;BME280;54636;51.684;5.142;2024-01-07T08:25:37;102269.88;;;0.28;100.00
67840;BME280;54636;51.684;5.142;2024-01-07T08:28:03;102316.63;;;0.59;100.00
67840;BME280;54636;51.684;5.142;2024-01-07T08:30:28;102314.69;;;0.56;100.00
67840;BME280;54636;51.684;5.142;2024-01-07T08:32:56;102306.69;;;0.60;100.00
67840;BME280;54636;51.684;5.142;2024-01-07T08:35:22;102289.78;;;0.38;100.00
67840;BME280;54636;51.684;5.142;2024-01-07T08:37:47;102317.75;;;0.55;100.00
67840;BME280;54636;51.684;5.142;2024-01-07T08:40:14;102326.19;;;0.64;100.00
67840;BME280;54636;51.684;5.142;2024-01-07T08:42:39;102331.50;;;0.57;100.00
67840;BME280;54636;51.684;5.142;2024-01-07T08:45:05;102326.53;;;0.52;100.00
67840;BME280;54636;51.684;5.142;2024-01-07T08:47:31;102324.63;;;0.56;100.00
67840;BME280;54636;51.684;5.142;2024-01-07T08:49:57;102338.03;;;0.59;100.00
67840;BME280;54636;51.684;5.142;2024-01-07T08:52:23;102334.13;;;0.46;100.00
67840;BME280;54636;51.684;5.142;2024-01-07T08:54:49;102345.63;;;0.54;100.00
67840;BME280;54636;51.684;5.142;2024-01-07T08:57:14;102332.97;;;0.47;100.00
67840;BME280;54636;51.684;5.142;2024-01-07T08:59:40;102344.06;;;0.49;100.00
67840;BME280;54636;51.684;5.142;2024-01-07T09:02:05;102358.28;;;0.60;100.00
67840;BME280;54636;51.684;5.142;2024-01-07T09:04:30;102362.47;;;0.61;100.00
67840;BME280;54636;51.684;5.142;2024-01-07T09:06:57;102340.22;;;0.47;100.00
67840;BME280;54636;51.684;5.142;2024-01-07T09:09:22;102369.00;;;0.64;100.00
67840;BME280;54636;51.684;5.142;2024-01-07T09:11:48;102379.66;;;0.60;100.00
67840;BME280;54636;51.684;5.142;2024-01-07T09:14:13;102370.47;;;0.58;100.00
67840;BME280;54636;51.684;5.142;2024-01-07T09:16:40;102368.16;;;0.53;100.00
67840;BME280;54636;51.684;5.142;2024-01-07T09:19:05;102375.44;;;0.56;100.00
67840;BME280;54636;51.684;5.142;2024-01-07T09:21:30;102381.56;;;0.60;100.00
67840;BME280;54636;51.684;5.142;2024-01-07T09:23:56;102382.31;;;0.57;100.00
67840;BME280;54636;51.684;5.142;2024-01-07T09:26:21;102374.63;;;0.52;100.00
67840;BME280;54636;51.684;5.142;2024-01-07T09:28:46;102387.31;;;0.65;100.00
67840;BME280;54636;51.684;5.142;2024-01-07T09:31:12;102393.78;;;0.61;100.00
67840;BME280;54636;51.684;5.142;2024-01-07T09:33:37;102406.78;;;0.66;100.00
67840;BME280;54636;51.684;5.142;2024-01-07T09:36:03;102391.41;;;0.49;100.00
67840;BME280;54636;51.684;5.142;2024-01-07T09:38:28;102401.06;;;0.60;100.00
67840;BME280;54636;51.684;5.142;2024-01-07T09:40:54;102402.53;;;0.54;100.00
67840;BME280;54636;51.684;5.142;2024-01-07T09:43:20;102403.28;;;0.51;100.00
67840;BME280;54636;51.684;5.142;2024-01-07T09:45:49;102441.19;;;0.64;100.00
67840;BME280;54636;51.684;5.142;2024-01-07T09:48:15;102422.78;;;0.55;100.00
67840;BME280;54636;51.684;5.142;2024-01-07T09:50:42;102419.25;;;0.41;100.00
67840;BME280;54636;51.684;5.142;2024-01-07T09:53:12;102423.53;;;0.52;100.00
67840;BME280;54636;51.684;5.142;2024-01-07T09:56:18;102430.78;;;0.52;100.00
67840;BME280;54636;51.684;5.142;2024-01-07T09:58:45;102419.59;;;0.36;100.00
67840;BME280;54636;51.684;5.142;2024-01-07T10:01:15;102441.41;;;0.45;100.00
67840;BME280;54636;51.684;5.142;2024-01-07T10:03:42;102445.94;;;0.37;100.00
67840;BME280;54636;51.684;5.142;2024-01-07T10:06:07;102437.88;;;0.30;100.00
67840;BME280;54636;51.684;5.142;2024-01-07T10:08:32;102456.69;;;0.44;100.00
67840;BME280;54636;51.684;5.142;2024-01-07T10:10:58;102451.72;;;0.43;100.00
67840;BME280;54636;51.684;5.142;2024-01-07T10:13:23;102450.59;;;0.47;100.00
67840;BME280;54636;51.684;5.142;2024-01-07T10:15:49;102449.44;;;0.45;100.00
67840;BME280;54636;51.684;5.142;2024-01-07T10:18:14;102444.84;;;0.42;100.00
67840;BME280;54636;51.684;5.142;2024-01-07T10:20:40;102442.09;;;0.35;100.00
67840;BME280;54636;51.684;5.142;2024-01-07T10:23:05;102436.31;;;0.29;100.00
67840;BME280;54636;51.684;5.142;2024-01-07T10:25:33;102465.88;;;0.47;100.00
67840;BME280;54636;51.684;5.142;2024-01-07T10:28:02;102417.91;;;0.17;100.00
67840;BME280;54636;51.684;5.142;2024-01-07T10:30:29;102474.34;;;0.56;100.00
67840;BME280;54636;51.684;5.142;2024-01-07T10:32:58;102470.50;;;0.53;100.00
67840;BME280;54636;51.684;5.142;2024-01-07T10:35:34;102448.94;;;0.32;100.00
67840;BME280;54636;51.684;5.142;2024-01-07T10:38:00;102462.41;;;0.43;100.00
67840;BME280;54636;51.684;5.142;2024-01-07T10:40:31;102447.81;;;0.33;100.00
67840;BME280;54636;51.684;5.142;2024-01-07T10:42:57;102464.31;;;0.42;100.00
67840;BME280;54636;51.684;5.142;2024-01-07T10:45:23;102468.91;;;0.45;100.00
67840;BME280;54636;51.684;5.142;2024-01-07T10:47:50;102466.22;;;0.42;100.00
67840;BME280;54636;51.684;5.142;2024-01-07T10:50:18;102476.94;;;0.45;100.00
67840;BME280;54636;51.684;5.142;2024-01-07T10:52:49;102486.53;;;0.50;100.00
67840;BME280;54636;51.684;5.142;2024-01-07T10:55:17;102483.06;;;0.46;100.00
67840;BME280;54636;51.684;5.142;2024-01-07T10:57:44;102475.09;;;0.53;100.00
67840;BME280;54636;51.684;5.142;2024-01-07T11:00:16;102475.84;;;0.50;100.00
67840;BME280;54636;51.684;5.142;2024-01-07T11:03:23;102487.78;;;0.63;100.00
67840;BME280;54636;51.684;5.142;2024-01-07T11:05:58;102458.19;;;0.42;100.00
67840;BME280;54636;51.684;5.142;2024-01-07T11:08:44;102490.78;;;0.58;100.00
67840;BME280;54636;51.684;5.142;2024-01-07T11:11:17;102469.69;;;0.46;100.00
67840;BME280;54636;51.684;5.142;2024-01-07T11:13:43;102488.09;;;0.54;100.00
67840;BME280;54636;51.684;5.142;2024-01-07T11:16:10;102486.94;;;0.52;100.00
67840;BME280;54636;51.684;5.142;2024-01-07T11:18:46;102460.81;;;0.35;100.00
67840;BME280;54636;51.684;5.142;2024-01-07T11:21:21;102469.97;;;0.33;100.00
67840;BME280;54636;51.684;5.142;2024-01-07T11:23:49;102473.09;;;0.43;100.00
67840;BME280;54636;51.684;5.142;2024-01-07T11:26:15;102489.19;;;0.50;100.00
67840;BME280;54636;51.684;5.142;2024-01-07T11:28:51;102487.25;;;0.47;100.00
67840;BME280;54636;51.684;5.142;2024-01-07T11:31:18;102490.34;;;0.49;100.00
67840;BME280;54636;51.684;5.142;2024-01-07T11:33:45;102498.38;;;0.52;100.00
67840;BME280;54636;51.684;5.142;2024-01-07T11:36:13;102492.66;;;0.54;100.00
67840;BME280;54636;51.684;5.142;2024-01-07T11:38:48;102488.88;;;0.58;100.00
67840;BME280;54636;51.684;5.142;2024-01-07T11:41:14;102490.41;;;0.56;100.00
67840;BME280;54636;51.684;5.142;2024-01-07T11:43:59;102491.53;;;0.55;100.00
67840;BME280;54636;51.684;5.142;2024-01-07T11:46:26;102491.94;;;0.57;100.00
67840;BME280;54636;51.684;5.142;2024-01-07T11:48:56;102479.69;;;0.56;100.00
67840;BME280;54636;51.684;5.142;2024-01-07T11:51:26;102487.38;;;0.61;100.00
67840;BME280;54636;51.684;5.142;2024-01-07T11:53:52;102474.38;;;0.59;100.00
67840;BME280;54636;51.684;5.142;2024-01-07T11:56:18;102488.94;;;0.69;100.00
67840;BME280;54636;51.684;5.142;2024-01-07T11:58:43;102503.53;;;0.79;100.00
67840;BME280;54636;51.684;5.142;2024-01-07T12:01:09;102452.59;;;0.57;100.00
67840;BME280;54636;51.684;5.142;2024-01-07T12:03:34;102490.88;;;0.72;100.00
67840;BME280;54636;51.684;5.142;2024-01-07T12:06:00;102482.59;;;0.88;100.00
67840;BME280;54636;51.684;5.142;2024-01-07T12:08:25;102516.53;;;0.80;100.00
67840;BME280;54636;51.684;5.142;2024-01-07T12:10:51;102492.78;;;0.72;100.00
67840;BME280;54636;51.684;5.142;2024-01-07T12:13:17;102478.19;;;0.58;100.00
67840;BME280;54636;51.684;5.142;2024-01-07T12:15:42;102481.66;;;0.66;100.00
67840;BME280;54636;51.684;5.142;2024-01-07T12:18:09;102492.09;;;0.82;100.00
67840;BME280;54636;51.684;5.142;2024-01-07T12:20:34;102501.28;;;0.84;100.00
67840;BME280;54636;51.684;5.142;2024-01-07T12:23:09;102485.66;;;0.90;100.00
67840;BME280;54636;51.684;5.142;2024-01-07T12:25:36;102481.81;;;0.87;100.00
67840;BME280;54636;51.684;5.142;2024-01-07T12:28:02;102495.66;;;1.00;100.00
67840;BME280;54636;51.684;5.142;2024-01-07T12:30:28;102499.47;;;0.95;100.00
67840;BME280;54636;51.684;5.142;2024-01-07T12:32:54;102482.19;;;0.86;100.00
67840;BME280;54636;51.684;5.142;2024-01-07T12:35:20;102515.13;;;0.97;100.00
67840;BME280;54636;51.684;5.142;2024-01-07T12:37:45;102487.81;;;0.70;100.00
67840;BME280;54636;51.684;5.142;2024-01-07T12:40:13;102502.75;;;0.75;100.00
67840;BME280;54636;51.684;5.142;2024-01-07T12:42:39;102483.94;;;0.60;100.00
67840;BME280;54636;51.684;5.142;2024-01-07T12:45:14;102499.66;;;0.73;100.00